Weather at Wolf River Landing Strip

Public forecast

Using degrees Fahrenheit for public forecast. Weather courtesy of forecast.io.

Closest aviation weather report (METAR) to Wolf River Landing Strip

Closest report is Clintonville Municipal Airport, 10.0 nm (18.6 km) NW. Retrieved 2021/11/28 16:35 UTC (12 minutes ago):

KCLI 281635Z AUTO 33011G23KT 10SM CLR 01/M09 A2999 RMK AO2

Closest aviation forecast (TAF) to Wolf River Landing Strip

Closest forecast is Appleton International Airport, 15.5 nm (28.7 km) S. Retrieved 2021/11/28 12:36 UTC (4 hours ago):

TAF KATW 281135Z 2812/2912 28009G16KT P6SM SCT035 FM281400 31016G25KT P6SM SCT035 FM282300 29007KT P6SM SKC FM290400 26004KT P6SM SCT250 FM291000 22004KT P6SM BKN150